This is the latest recevied weather packets stored in our database for station/object OH2NJR. If no packets are shown the sender has not sent any weather packets the latest 1 day(s).
| Time | Temp. | Humidity | Pressure | Rain* | Wind** | Luminosity | Snow |
|---|---|---|---|---|---|---|---|
| 1777997246 | 10.56° C | 33% | 1005.1 hPa | 0 mm | 1.34 m/s, 110° | - | - |
| 1777996048 | 11.11° C | 36% | 1005.1 hPa | 0 mm | 0.89 m/s, 99° | - | - |
| 1777995080 | 11.11° C | 35% | 1004.9 hPa | 0 mm | 1.79 m/s, 323° | - | - |
| 1777993888 | 10.56° C | 35% | 1005 hPa | 0 mm | 1.79 m/s, 349° | - | - |
| 1777992858 | 11.11° C | 36% | 1004.9 hPa | 0 mm | 1.79 m/s, 128° | - | - |
| 1777991738 | 11.11° C | 37% | 1004.8 hPa | 0 mm | 1.79 m/s, 162° | - | - |
| 1777990580 | 11.67° C | 36% | 1004.9 hPa | 0 mm | 1.79 m/s, 230° | - | - |
| 1777989406 | 11.11° C | 34% | - | 0 mm | 1.79 m/s, 48° | - | - |
| 1777989403 | 11.11° C | 34% | 1004.8 hPa | 0 mm | 1.79 m/s, 48° | - | - |
| 1777988328 | 11.11° C | 37% | 1004.8 hPa | 0 mm | 1.34 m/s, 109° | - | - |
| 1777987338 | 11.11° C | 41% | 1004.7 hPa | 0 mm | 2.24 m/s, 347° | - | - |
| 1777986186 | 11.67° C | 38% | 1004.2 hPa | 0 mm | 2.24 m/s, 78° | - | - |
| 1777985131 | 10.56° C | - | - | 0 mm | 1.34 m/s, 354° | - | - |
| 1777985123 | 10.56° C | 45% | 1004 hPa | 0 mm | 1.34 m/s, 354° | - | - |
| 1777984052 | 11.11° C | 40% | 1003.7 hPa | 0 mm | 1.34 m/s, 357° | - | - |
| 1777983078 | 11.11° C | 39% | 1003.7 hPa | 0 mm | 2.24 m/s, 314° | - | - |
| 1777981913 | 11.11° C | 43% | 1003.5 hPa | 0 mm | 2.68 m/s, 306° | - | - |
| 1777980858 | 11.11° C | 40% | 1003.3 hPa | 0 mm | 2.68 m/s, 335° | - | - |
| 1777979831 | 11.67° C | 41% | 1003.1 hPa | 0 mm | 1.79 m/s, 20° | - | - |
| 1777979828 | 11.67° C | 41% | 1003.1 hPa | 0 mm | 1.79 m/s, 20° | - | - |
| 1777978633 | 12.22° C | 44% | 1002.7 hPa | 0 mm | 2.68 m/s, 4° | - | - |
| 1777977668 | 11.67° C | 47% | 1002.7 hPa | 0 mm | 1.79 m/s, 336° | - | - |
| 1777976668 | 11.67° C | 46% | 1002.3 hPa | 0 mm | 1.79 m/s, 333° | - | - |
| 1777975473 | 9.44° C | 68% | 1002.4 hPa | 0 mm | 0.89 m/s, 115° | - | - |
| 1777974396 | 8.89° C | 69% | 1002 hPa | 0 mm | 1.34 m/s, 94° | - | - |
* Rain latest hour (hover to see other rain measurements)
** Current wind speed in m/s (hover to see current wind gust speed)